sensor_id;sensor_type;location;lat;lon;timestamp;P1;durP1;ratioP1;P2;durP2;ratioP2
15614;SDS011;7907;51.368;6.730;2022-12-29T02:02:58;0.00;;;0.00;;
15614;SDS011;7907;51.368;6.730;2022-12-29T02:09:32;0.00;;;0.00;;
15614;SDS011;7907;51.368;6.730;2022-12-29T02:12:23;1.20;;;0.40;;
15614;SDS011;7907;51.368;6.730;2022-12-29T02:18:51;0.00;;;0.00;;
15614;SDS011;7907;51.368;6.730;2022-12-29T02:22:07;0.40;;;0.20;;
15614;SDS011;7907;51.368;6.730;2022-12-29T02:35:53;0.20;;;0.10;;
15614;SDS011;7907;51.368;6.730;2022-12-29T02:38:59;0.10;;;0.10;;
15614;SDS011;7907;51.368;6.730;2022-12-29T02:42:17;0.08;;;0.08;;
15614;SDS011;7907;51.368;6.730;2022-12-29T02:48:37;0.30;;;0.20;;
15614;SDS011;7907;51.368;6.730;2022-12-29T03:12:20;5.30;;;0.30;;
15614;SDS011;7907;51.368;6.730;2022-12-29T03:31:07;0.00;;;0.00;;
15614;SDS011;7907;51.368;6.730;2022-12-29T03:37:18;0.10;;;0.10;;
15614;SDS011;7907;51.368;6.730;2022-12-29T03:48:42;0.10;;;0.10;;
15614;SDS011;7907;51.368;6.730;2022-12-29T03:57:43;0.00;;;0.00;;
15614;SDS011;7907;51.368;6.730;2022-12-29T04:00:32;0.10;;;0.10;;
15614;SDS011;7907;51.368;6.730;2022-12-29T04:03:17;0.00;;;0.00;;
15614;SDS011;7907;51.368;6.730;2022-12-29T04:05:57;0.10;;;0.10;;
15614;SDS011;7907;51.368;6.730;2022-12-29T04:08:39;0.08;;;0.00;;
15614;SDS011;7907;51.368;6.730;2022-12-29T04:18:14;0.00;;;0.00;;
15614;SDS011;7907;51.368;6.730;2022-12-29T04:20:59;0.10;;;0.10;;
15614;SDS011;7907;51.368;6.730;2022-12-29T04:23:39;0.22;;;0.10;;
15614;SDS011;7907;51.368;6.730;2022-12-29T04:26:40;0.20;;;0.20;;
15614;SDS011;7907;51.368;6.730;2022-12-29T04:29:29;0.00;;;0.00;;
15614;SDS011;7907;51.368;6.730;2022-12-29T04:32:19;0.10;;;0.10;;
15614;SDS011;7907;51.368;6.730;2022-12-29T04:35:36;0.00;;;0.00;;
15614;SDS011;7907;51.368;6.730;2022-12-29T04:41:12;0.00;;;0.00;;
15614;SDS011;7907;51.368;6.730;2022-12-29T04:50:26;0.20;;;0.10;;
15614;SDS011;7907;51.368;6.730;2022-12-29T04:53:22;0.00;;;0.00;;
15614;SDS011;7907;51.368;6.730;2022-12-29T04:56:15;0.00;;;0.00;;
15614;SDS011;7907;51.368;6.730;2022-12-29T04:58:59;0.00;;;0.00;;
15614;SDS011;7907;51.368;6.730;2022-12-29T05:01:54;0.33;;;0.23;;
15614;SDS011;7907;51.368;6.730;2022-12-29T05:04:32;0.10;;;0.10;;
15614;SDS011;7907;51.368;6.730;2022-12-29T05:10:09;0.10;;;0.10;;
15614;SDS011;7907;51.368;6.730;2022-12-29T05:12:41;0.00;;;0.00;;
15614;SDS011;7907;51.368;6.730;2022-12-29T05:15:37;0.00;;;0.00;;
15614;SDS011;7907;51.368;6.730;2022-12-29T05:18:21;0.10;;;0.10;;
15614;SDS011;7907;51.368;6.730;2022-12-29T05:20:55;0.00;;;0.00;;
15614;SDS011;7907;51.368;6.730;2022-12-29T05:23:33;0.10;;;0.10;;
15614;SDS011;7907;51.368;6.730;2022-12-29T05:26:01;0.00;;;0.00;;
15614;SDS011;7907;51.368;6.730;2022-12-29T05:28:53;0.00;;;0.00;;
15614;SDS011;7907;51.368;6.730;2022-12-29T05:37:32;0.20;;;0.10;;
15614;SDS011;7907;51.368;6.730;2022-12-29T05:47:38;0.90;;;0.50;;
15614;SDS011;7907;51.368;6.730;2022-12-29T05:50:06;0.08;;;0.08;;
15614;SDS011;7907;51.368;6.730;2022-12-29T05:52:38;0.15;;;0.10;;
15614;SDS011;7907;51.368;6.730;2022-12-29T05:55:11;0.40;;;0.13;;
15614;SDS011;7907;51.368;6.730;2022-12-29T05:57:44;0.00;;;0.00;;
15614;SDS011;7907;51.368;6.730;2022-12-29T06:00:11;0.35;;;0.15;;
15614;SDS011;7907;51.368;6.730;2022-12-29T06:03:05;0.00;;;0.00;;
15614;SDS011;7907;51.368;6.730;2022-12-29T06:05:33;0.30;;;0.20;;
15614;SDS011;7907;51.368;6.730;2022-12-29T06:08:05;0.00;;;0.00;;
15614;SDS011;7907;51.368;6.730;2022-12-29T06:10:32;0.38;;;0.30;;
15614;SDS011;7907;51.368;6.730;2022-12-29T06:13:00;0.40;;;0.28;;
15614;SDS011;7907;51.368;6.730;2022-12-29T06:15:32;0.10;;;0.00;;
15614;SDS011;7907;51.368;6.730;2022-12-29T06:17:59;2.40;;;0.50;;
15614;SDS011;7907;51.368;6.730;2022-12-29T06:20:27;0.20;;;0.20;;
15614;SDS011;7907;51.368;6.730;2022-12-29T06:22:55;0.22;;;0.05;;
15614;SDS011;7907;51.368;6.730;2022-12-29T06:25:31;1.20;;;0.20;;
15614;SDS011;7907;51.368;6.730;2022-12-29T06:28:05;0.10;;;0.10;;
15614;SDS011;7907;51.368;6.730;2022-12-29T06:30:32;4.35;;;0.40;;
15614;SDS011;7907;51.368;6.730;2022-12-29T06:33:14;1.10;;;0.45;;
15614;SDS011;7907;51.368;6.730;2022-12-29T06:35:41;0.20;;;0.20;;
15614;SDS011;7907;51.368;6.730;2022-12-29T06:38:12;2.40;;;0.90;;
15614;SDS011;7907;51.368;6.730;2022-12-29T06:40:41;0.50;;;0.30;;
15614;SDS011;7907;51.368;6.730;2022-12-29T06:43:10;0.10;;;0.10;;
15614;SDS011;7907;51.368;6.730;2022-12-29T06:45:37;1.02;;;0.60;;
15614;SDS011;7907;51.368;6.730;2022-12-29T06:48:05;0.38;;;0.17;;
15614;SDS011;7907;51.368;6.730;2022-12-29T06:50:39;0.40;;;0.20;;
15614;SDS011;7907;51.368;6.730;2022-12-29T06:53:06;0.08;;;0.08;;
15614;SDS011;7907;51.368;6.730;2022-12-29T06:55:34;1.38;;;0.15;;
15614;SDS011;7907;51.368;6.730;2022-12-29T06:58:02;0.50;;;0.20;;
15614;SDS011;7907;51.368;6.730;2022-12-29T07:00:33;0.65;;;0.65;;
15614;SDS011;7907;51.368;6.730;2022-12-29T07:03:01;0.20;;;0.20;;
15614;SDS011;7907;51.368;6.730;2022-12-29T07:05:28;2.50;;;0.20;;
15614;SDS011;7907;51.368;6.730;2022-12-29T07:07:57;1.63;;;0.47;;
15614;SDS011;7907;51.368;6.730;2022-12-29T07:10:25;1.15;;;0.30;;
15614;SDS011;7907;51.368;6.730;2022-12-29T07:12:54;2.20;;;0.70;;
15614;SDS011;7907;51.368;6.730;2022-12-29T07:15:23;0.25;;;0.10;;
15614;SDS011;7907;51.368;6.730;2022-12-29T07:17:50;3.70;;;0.40;;
15614;SDS011;7907;51.368;6.730;2022-12-29T07:20:17;0.25;;;0.25;;
15614;SDS011;7907;51.368;6.730;2022-12-29T07:22:45;0.30;;;0.30;;
15614;SDS011;7907;51.368;6.730;2022-12-29T07:25:12;1.20;;;0.50;;
15614;SDS011;7907;51.368;6.730;2022-12-29T07:27:42;0.55;;;0.35;;
15614;SDS011;7907;51.368;6.730;2022-12-29T07:30:10;0.17;;;0.17;;
15614;SDS011;7907;51.368;6.730;2022-12-29T07:32:42;0.17;;;0.17;;
15614;SDS011;7907;51.368;6.730;2022-12-29T07:35:14;0.77;;;0.27;;
15614;SDS011;7907;51.368;6.730;2022-12-29T07:37:44;0.00;;;0.00;;
15614;SDS011;7907;51.368;6.730;2022-12-29T07:40:11;0.00;;;0.00;;
15614;SDS011;7907;51.368;6.730;2022-12-29T07:42:42;0.63;;;0.13;;
15614;SDS011;7907;51.368;6.730;2022-12-29T07:45:14;1.33;;;0.93;;
15614;SDS011;7907;51.368;6.730;2022-12-29T07:47:43;0.80;;;0.60;;
15614;SDS011;7907;51.368;6.730;2022-12-29T07:50:13;1.00;;;0.30;;
15614;SDS011;7907;51.368;6.730;2022-12-29T07:52:45;0.17;;;0.17;;
15614;SDS011;7907;51.368;6.730;2022-12-29T07:55:15;0.15;;;0.05;;
15614;SDS011;7907;51.368;6.730;2022-12-29T07:57:42;4.50;;;0.40;;
15614;SDS011;7907;51.368;6.730;2022-12-29T08:00:13;0.10;;;0.10;;
15614;SDS011;7907;51.368;6.730;2022-12-29T08:02:44;1.40;;;0.75;;
15614;SDS011;7907;51.368;6.730;2022-12-29T08:05:11;0.60;;;0.40;;
15614;SDS011;7907;51.368;6.730;2022-12-29T08:07:38;0.22;;;0.15;;
15614;SDS011;7907;51.368;6.730;2022-12-29T08:10:08;0.17;;;0.17;;
15614;SDS011;7907;51.368;6.730;2022-12-29T08:12:37;0.57;;;0.57;;
15614;SDS011;7907;51.368;6.730;2022-12-29T08:15:06;0.80;;;0.50;;
15614;SDS011;7907;51.368;6.730;2022-12-29T08:17:34;1.50;;;0.50;;
15614;SDS011;7907;51.368;6.730;2022-12-29T08:20:03;0.40;;;0.20;;
15614;SDS011;7907;51.368;6.730;2022-12-29T08:22:31;2.10;;;0.50;;
15614;SDS011;7907;51.368;6.730;2022-12-29T08:25:00;2.85;;;0.50;;
15614;SDS011;7907;51.368;6.730;2022-12-29T08:27:28;0.88;;;0.88;;
15614;SDS011;7907;51.368;6.730;2022-12-29T08:29:55;1.35;;;0.50;;
15614;SDS011;7907;51.368;6.730;2022-12-29T08:32:25;0.15;;;0.15;;
15614;SDS011;7907;51.368;6.730;2022-12-29T08:34:53;0.30;;;0.13;;
15614;SDS011;7907;51.368;6.730;2022-12-29T08:37:22;0.20;;;0.00;;
15614;SDS011;7907;51.368;6.730;2022-12-29T08:39:51;2.60;;;0.53;;
15614;SDS011;7907;51.368;6.730;2022-12-29T08:42:22;0.13;;;0.13;;
15614;SDS011;7907;51.368;6.730;2022-12-29T08:44:56;0.30;;;0.20;;
15614;SDS011;7907;51.368;6.730;2022-12-29T08:47:32;0.22;;;0.22;;
15614;SDS011;7907;51.368;6.730;2022-12-29T08:50:05;0.47;;;0.47;;
15614;SDS011;7907;51.368;6.730;2022-12-29T08:52:39;0.00;;;0.00;;
15614;SDS011;7907;51.368;6.730;2022-12-29T08:55:06;0.05;;;0.05;;
15614;SDS011;7907;51.368;6.730;2022-12-29T08:57:34;1.60;;;1.10;;
15614;SDS011;7907;51.368;6.730;2022-12-29T09:00:02;0.70;;;0.38;;
15614;SDS011;7907;51.368;6.730;2022-12-29T09:02:33;0.10;;;0.10;;
15614;SDS011;7907;51.368;6.730;2022-12-29T09:05:04;6.10;;;0.95;;
15614;SDS011;7907;51.368;6.730;2022-12-29T09:07:31;0.00;;;0.00;;
15614;SDS011;7907;51.368;6.730;2022-12-29T09:10:00;1.97;;;0.43;;
15614;SDS011;7907;51.368;6.730;2022-12-29T09:12:30;0.00;;;0.00;;
15614;SDS011;7907;51.368;6.730;2022-12-29T09:15:00;0.10;;;0.10;;
15614;SDS011;7907;51.368;6.730;2022-12-29T09:17:28;1.40;;;0.38;;
15614;SDS011;7907;51.368;6.730;2022-12-29T09:20:08;0.00;;;0.00;;
15614;SDS011;7907;51.368;6.730;2022-12-29T09:22:36;0.00;;;0.00;;
15614;SDS011;7907;51.368;6.730;2022-12-29T09:25:09;4.20;;;0.50;;
15614;SDS011;7907;51.368;6.730;2022-12-29T09:27:41;1.90;;;0.40;;
15614;SDS011;7907;51.368;6.730;2022-12-29T09:30:09;0.20;;;0.20;;
15614;SDS011;7907;51.368;6.730;2022-12-29T09:32:39;0.10;;;0.10;;
15614;SDS011;7907;51.368;6.730;2022-12-29T09:35:07;2.50;;;0.30;;
15614;SDS011;7907;51.368;6.730;2022-12-29T09:37:39;0.00;;;0.00;;
15614;SDS011;7907;51.368;6.730;2022-12-29T09:40:07;0.80;;;0.65;;
15614;SDS011;7907;51.368;6.730;2022-12-29T09:43:01;2.90;;;1.10;;
15614;SDS011;7907;51.368;6.730;2022-12-29T09:45:55;0.90;;;0.30;;
15614;SDS011;7907;51.368;6.730;2022-12-29T09:48:37;6.20;;;1.17;;
15614;SDS011;7907;51.368;6.730;2022-12-29T09:51:24;0.15;;;0.15;;
15614;SDS011;7907;51.368;6.730;2022-12-29T09:53:53;0.70;;;0.40;;
15614;SDS011;7907;51.368;6.730;2022-12-29T09:56:25;0.30;;;0.20;;
15614;SDS011;7907;51.368;6.730;2022-12-29T10:01:49;0.22;;;0.15;;
15614;SDS011;7907;51.368;6.730;2022-12-29T10:04:26;0.00;;;0.00;;
15614;SDS011;7907;51.368;6.730;2022-12-29T10:06:54;0.50;;;0.30;;
15614;SDS011;7907;51.368;6.730;2022-12-29T10:09:30;0.20;;;0.20;;
15614;SDS011;7907;51.368;6.730;2022-12-29T10:12:15;0.90;;;0.20;;
15614;SDS011;7907;51.368;6.730;2022-12-29T10:15:04;1.15;;;0.40;;
15614;SDS011;7907;51.368;6.730;2022-12-29T10:18:03;0.30;;;0.30;;
15614;SDS011;7907;51.368;6.730;2022-12-29T10:20:47;0.00;;;0.00;;
15614;SDS011;7907;51.368;6.730;2022-12-29T10:26:09;0.25;;;0.10;;
15614;SDS011;7907;51.368;6.730;2022-12-29T10:28:58;3.30;;;0.60;;
15614;SDS011;7907;51.368;6.730;2022-12-29T10:31:32;0.00;;;0.00;;
15614;SDS011;7907;51.368;6.730;2022-12-29T10:34:07;0.20;;;0.20;;
15614;SDS011;7907;51.368;6.730;2022-12-29T10:36:57;2.65;;;0.60;;
15614;SDS011;7907;51.368;6.730;2022-12-29T10:39:30;0.20;;;0.05;;
15614;SDS011;7907;51.368;6.730;2022-12-29T10:42:08;0.55;;;0.45;;
15614;SDS011;7907;51.368;6.730;2022-12-29T10:44:46;1.10;;;0.30;;
15614;SDS011;7907;51.368;6.730;2022-12-29T10:47:16;0.10;;;0.10;;
15614;SDS011;7907;51.368;6.730;2022-12-29T10:49:47;1.70;;;0.50;;
15614;SDS011;7907;51.368;6.730;2022-12-29T10:52:21;2.90;;;0.50;;
15614;SDS011;7907;51.368;6.730;2022-12-29T10:54:57;0.30;;;0.20;;
15614;SDS011;7907;51.368;6.730;2022-12-29T10:57:30;2.53;;;0.98;;
15614;SDS011;7907;51.368;6.730;2022-12-29T11:00:12;1.15;;;1.08;;
15614;SDS011;7907;51.368;6.730;2022-12-29T11:06:22;0.40;;;0.40;;
15614;SDS011;7907;51.368;6.730;2022-12-29T11:08:53;0.00;;;0.00;;
15614;SDS011;7907;51.368;6.730;2022-12-29T11:11:28;0.10;;;0.10;;
15614;SDS011;7907;51.368;6.730;2022-12-29T11:14:11;0.00;;;0.00;;
15614;SDS011;7907;51.368;6.730;2022-12-29T11:16:57;0.50;;;0.10;;
15614;SDS011;7907;51.368;6.730;2022-12-29T11:19:27;0.70;;;0.50;;
15614;SDS011;7907;51.368;6.730;2022-12-29T11:22:01;6.18;;;0.68;;
15614;SDS011;7907;51.368;6.730;2022-12-29T11:24:43;0.00;;;0.00;;
15614;SDS011;7907;51.368;6.730;2022-12-29T11:27:14;0.10;;;0.10;;
15614;SDS011;7907;51.368;6.730;2022-12-29T11:29:43;0.00;;;0.00;;
15614;SDS011;7907;51.368;6.730;2022-12-29T11:32:12;2.25;;;0.17;;
15614;SDS011;7907;51.368;6.730;2022-12-29T11:34:57;1.50;;;0.30;;
15614;SDS011;7907;51.368;6.730;2022-12-29T11:37:30;0.10;;;0.10;;
15614;SDS011;7907;51.368;6.730;2022-12-29T11:40:10;1.00;;;0.10;;
15614;SDS011;7907;51.368;6.730;2022-12-29T11:42:47;0.90;;;0.20;;
15614;SDS011;7907;51.368;6.730;2022-12-29T11:45:18;0.00;;;0.00;;
15614;SDS011;7907;51.368;6.730;2022-12-29T11:47:49;5.15;;;0.65;;
15614;SDS011;7907;51.368;6.730;2022-12-29T11:50:18;0.28;;;0.28;;
15614;SDS011;7907;51.368;6.730;2022-12-29T11:52:48;0.80;;;0.40;;
15614;SDS011;7907;51.368;6.730;2022-12-29T11:55:20;0.50;;;0.20;;
15614;SDS011;7907;51.368;6.730;2022-12-29T11:57:50;0.10;;;0.03;;
15614;SDS011;7907;51.368;6.730;2022-12-29T12:00:44;0.10;;;0.03;;
15614;SDS011;7907;51.368;6.730;2022-12-29T12:03:22;0.00;;;0.00;;
15614;SDS011;7907;51.368;6.730;2022-12-29T12:05:57;0.60;;;0.00;;
15614;SDS011;7907;51.368;6.730;2022-12-29T12:08:32;3.88;;;0.32;;
15614;SDS011;7907;51.368;6.730;2022-12-29T12:11:06;1.40;;;0.50;;
15614;SDS011;7907;51.368;6.730;2022-12-29T12:13:39;4.00;;;0.20;;
15614;SDS011;7907;51.368;6.730;2022-12-29T12:16:14;2.35;;;0.30;;
15614;SDS011;7907;51.368;6.730;2022-12-29T12:19:03;0.03;;;0.00;;
15614;SDS011;7907;51.368;6.730;2022-12-29T12:21:40;0.40;;;0.20;;
15614;SDS011;7907;51.368;6.730;2022-12-29T12:27:09;0.57;;;0.25;;
15614;SDS011;7907;51.368;6.730;2022-12-29T12:29:50;0.00;;;0.00;;
15614;SDS011;7907;51.368;6.730;2022-12-29T12:32:24;0.60;;;0.20;;
15614;SDS011;7907;51.368;6.730;2022-12-29T12:34:58;0.47;;;0.32;;
15614;SDS011;7907;51.368;6.730;2022-12-29T12:40:31;0.00;;;0.00;;
15614;SDS011;7907;51.368;6.730;2022-12-29T12:43:25;0.45;;;0.35;;
15614;SDS011;7907;51.368;6.730;2022-12-29T12:46:24;1.90;;;0.60;;
15614;SDS011;7907;51.368;6.730;2022-12-29T12:53:22;0.22;;;0.22;;
15614;SDS011;7907;51.368;6.730;2022-12-29T12:56:01;0.00;;;0.00;;
15614;SDS011;7907;51.368;6.730;2022-12-29T12:58:46;4.40;;;0.40;;
15614;SDS011;7907;51.368;6.730;2022-12-29T13:01:34;0.40;;;0.40;;
15614;SDS011;7907;51.368;6.730;2022-12-29T13:04:18;1.10;;;0.30;;
15614;SDS011;7907;51.368;6.730;2022-12-29T13:07:06;4.20;;;0.30;;
15614;SDS011;7907;51.368;6.730;2022-12-29T13:09:47;0.70;;;0.50;;
15614;SDS011;7907;51.368;6.730;2022-12-29T13:12:28;0.00;;;0.00;;
15614;SDS011;7907;51.368;6.730;2022-12-29T13:15:07;0.50;;;0.50;;
15614;SDS011;7907;51.368;6.730;2022-12-29T13:17:46;0.20;;;0.20;;
15614;SDS011;7907;51.368;6.730;2022-12-29T13:20:20;0.50;;;0.22;;
15614;SDS011;7907;51.368;6.730;2022-12-29T13:23:02;0.73;;;0.28;;
15614;SDS011;7907;51.368;6.730;2022-12-29T13:25:42;0.25;;;0.25;;
15614;SDS011;7907;51.368;6.730;2022-12-29T13:28:16;0.50;;;0.10;;
15614;SDS011;7907;51.368;6.730;2022-12-29T13:30:51;0.25;;;0.15;;
15614;SDS011;7907;51.368;6.730;2022-12-29T13:33:28;0.60;;;0.50;;
15614;SDS011;7907;51.368;6.730;2022-12-29T13:36:09;0.25;;;0.05;;
15614;SDS011;7907;51.368;6.730;2022-12-29T13:41:30;0.52;;;0.52;;
15614;SDS011;7907;51.368;6.730;2022-12-29T13:44:02;0.60;;;0.30;;
15614;SDS011;7907;51.368;6.730;2022-12-29T13:46:31;0.22;;;0.22;;
15614;SDS011;7907;51.368;6.730;2022-12-29T13:49:04;0.30;;;0.30;;
15614;SDS011;7907;51.368;6.730;2022-12-29T13:51:34;1.10;;;0.45;;
15614;SDS011;7907;51.368;6.730;2022-12-29T13:54:12;1.23;;;0.50;;
15614;SDS011;7907;51.368;6.730;2022-12-29T13:56:59;2.17;;;0.57;;
15614;SDS011;7907;51.368;6.730;2022-12-29T13:59:36;0.20;;;0.20;;
15614;SDS011;7907;51.368;6.730;2022-12-29T14:02:17;1.63;;;0.22;;
15614;SDS011;7907;51.368;6.730;2022-12-29T14:04:56;2.40;;;0.40;;
15614;SDS011;7907;51.368;6.730;2022-12-29T14:07:25;0.00;;;0.00;;
15614;SDS011;7907;51.368;6.730;2022-12-29T14:09:57;0.73;;;0.22;;
15614;SDS011;7907;51.368;6.730;2022-12-29T14:12:29;3.75;;;0.38;;
15614;SDS011;7907;51.368;6.730;2022-12-29T14:15:13;0.10;;;0.10;;
15614;SDS011;7907;51.368;6.730;2022-12-29T14:18:09;0.80;;;0.35;;
15614;SDS011;7907;51.368;6.730;2022-12-29T14:20:46;1.50;;;0.93;;
15614;SDS011;7907;51.368;6.730;2022-12-29T14:23:27;3.05;;;0.38;;
15614;SDS011;7907;51.368;6.730;2022-12-29T14:26:14;1.90;;;0.20;;
15614;SDS011;7907;51.368;6.730;2022-12-29T14:28:45;0.30;;;0.30;;
15614;SDS011;7907;51.368;6.730;2022-12-29T14:37:04;0.20;;;0.10;;
15614;SDS011;7907;51.368;6.730;2022-12-29T14:39:52;3.65;;;0.28;;
15614;SDS011;7907;51.368;6.730;2022-12-29T14:42:32;0.20;;;0.20;;
15614;SDS011;7907;51.368;6.730;2022-12-29T14:45:01;1.70;;;0.30;;
15614;SDS011;7907;51.368;6.730;2022-12-29T14:47:33;0.30;;;0.22;;
15614;SDS011;7907;51.368;6.730;2022-12-29T14:50:14;1.87;;;0.47;;
15614;SDS011;7907;51.368;6.730;2022-12-29T14:52:45;3.30;;;0.30;;
15614;SDS011;7907;51.368;6.730;2022-12-29T14:55:31;0.73;;;0.25;;
15614;SDS011;7907;51.368;6.730;2022-12-29T14:58:07;0.30;;;0.20;;
15614;SDS011;7907;51.368;6.730;2022-12-29T15:00:42;0.40;;;0.20;;
15614;SDS011;7907;51.368;6.730;2022-12-29T15:03:13;0.40;;;0.30;;
15614;SDS011;7907;51.368;6.730;2022-12-29T15:05:44;0.10;;;0.10;;
15614;SDS011;7907;51.368;6.730;2022-12-29T15:08:24;0.50;;;0.40;;
15614;SDS011;7907;51.368;6.730;2022-12-29T15:10:55;0.20;;;0.20;;
15614;SDS011;7907;51.368;6.730;2022-12-29T15:13:34;0.20;;;0.20;;
15614;SDS011;7907;51.368;6.730;2022-12-29T15:16:02;0.10;;;0.00;;
15614;SDS011;7907;51.368;6.730;2022-12-29T15:18:30;0.10;;;0.10;;
15614;SDS011;7907;51.368;6.730;2022-12-29T15:21:02;0.00;;;0.00;;
15614;SDS011;7907;51.368;6.730;2022-12-29T15:23:34;3.20;;;0.00;;
15614;SDS011;7907;51.368;6.730;2022-12-29T15:26:03;1.50;;;0.60;;
15614;SDS011;7907;51.368;6.730;2022-12-29T15:28:38;1.55;;;0.32;;
15614;SDS011;7907;51.368;6.730;2022-12-29T15:31:11;0.88;;;0.50;;
15614;SDS011;7907;51.368;6.730;2022-12-29T15:33:52;0.00;;;0.00;;
15614;SDS011;7907;51.368;6.730;2022-12-29T15:36:34;0.40;;;0.20;;
15614;SDS011;7907;51.368;6.730;2022-12-29T15:39:19;0.30;;;0.30;;
15614;SDS011;7907;51.368;6.730;2022-12-29T15:41:47;0.20;;;0.10;;
15614;SDS011;7907;51.368;6.730;2022-12-29T15:44:31;0.75;;;0.32;;
15614;SDS011;7907;51.368;6.730;2022-12-29T15:47:03;1.00;;;0.40;;
15614;SDS011;7907;51.368;6.730;2022-12-29T15:49:38;0.10;;;0.10;;
15614;SDS011;7907;51.368;6.730;2022-12-29T15:52:06;0.10;;;0.10;;
15614;SDS011;7907;51.368;6.730;2022-12-29T15:54:34;0.00;;;0.00;;
15614;SDS011;7907;51.368;6.730;2022-12-29T15:57:02;0.60;;;0.30;;
15614;SDS011;7907;51.368;6.730;2022-12-29T15:59:31;0.00;;;0.00;;
15614;SDS011;7907;51.368;6.730;2022-12-29T16:02:00;0.28;;;0.28;;
15614;SDS011;7907;51.368;6.730;2022-12-29T16:04:29;2.00;;;0.70;;
15614;SDS011;7907;51.368;6.730;2022-12-29T16:06:58;0.10;;;0.10;;
15614;SDS011;7907;51.368;6.730;2022-12-29T16:09:31;0.20;;;0.20;;
15614;SDS011;7907;51.368;6.730;2022-12-29T16:12:00;6.70;;;0.35;;
15614;SDS011;7907;51.368;6.730;2022-12-29T16:14:33;2.75;;;0.43;;
15614;SDS011;7907;51.368;6.730;2022-12-29T16:17:05;0.40;;;0.40;;
15614;SDS011;7907;51.368;6.730;2022-12-29T16:19:36;0.50;;;0.20;;
15614;SDS011;7907;51.368;6.730;2022-12-29T16:22:09;0.82;;;0.40;;
15614;SDS011;7907;51.368;6.730;2022-12-29T16:24:38;0.00;;;0.00;;
15614;SDS011;7907;51.368;6.730;2022-12-29T16:27:06;2.80;;;0.50;;
15614;SDS011;7907;51.368;6.730;2022-12-29T16:29:37;1.75;;;0.55;;
15614;SDS011;7907;51.368;6.730;2022-12-29T16:32:21;0.20;;;0.10;;
15614;SDS011;7907;51.368;6.730;2022-12-29T16:34:52;0.13;;;0.03;;
15614;SDS011;7907;51.368;6.730;2022-12-29T16:37:36;1.90;;;0.40;;
15614;SDS011;7907;51.368;6.730;2022-12-29T16:42:56;1.40;;;0.60;;
15614;SDS011;7907;51.368;6.730;2022-12-29T16:48:32;1.60;;;0.63;;
15614;SDS011;7907;51.368;6.730;2022-12-29T16:51:02;0.10;;;0.10;;
15614;SDS011;7907;51.368;6.730;2022-12-29T16:53:32;1.95;;;0.55;;
15614;SDS011;7907;51.368;6.730;2022-12-29T16:56:05;2.70;;;1.10;;
15614;SDS011;7907;51.368;6.730;2022-12-29T16:58:45;0.68;;;0.17;;
15614;SDS011;7907;51.368;6.730;2022-12-29T17:01:13;0.77;;;0.27;;
15614;SDS011;7907;51.368;6.730;2022-12-29T17:03:49;0.80;;;0.27;;
15614;SDS011;7907;51.368;6.730;2022-12-29T17:06:20;1.88;;;0.65;;
15614;SDS011;7907;51.368;6.730;2022-12-29T17:08:49;4.53;;;2.43;;
15614;SDS011;7907;51.368;6.730;2022-12-29T17:11:21;1.92;;;1.73;;
15614;SDS011;7907;51.368;6.730;2022-12-29T17:14:21;7.32;;;2.55;;
15614;SDS011;7907;51.368;6.730;2022-12-29T17:17:00;2.58;;;2.00;;
15614;SDS011;7907;51.368;6.730;2022-12-29T17:19:30;4.72;;;2.13;;
15614;SDS011;7907;51.368;6.730;2022-12-29T17:21:59;5.93;;;2.67;;
15614;SDS011;7907;51.368;6.730;2022-12-29T17:24:27;3.10;;;2.38;;
15614;SDS011;7907;51.368;6.730;2022-12-29T17:26:54;2.10;;;1.67;;
15614;SDS011;7907;51.368;6.730;2022-12-29T17:29:39;0.80;;;0.60;;
15614;SDS011;7907;51.368;6.730;2022-12-29T17:32:09;0.73;;;0.73;;
15614;SDS011;7907;51.368;6.730;2022-12-29T17:34:40;0.20;;;0.17;;
15614;SDS011;7907;51.368;6.730;2022-12-29T17:37:20;0.00;;;0.00;;
15614;SDS011;7907;51.368;6.730;2022-12-29T17:39:57;1.05;;;0.30;;
15614;SDS011;7907;51.368;6.730;2022-12-29T17:42:24;0.30;;;0.30;;
15614;SDS011;7907;51.368;6.730;2022-12-29T17:45:01;0.95;;;0.43;;
15614;SDS011;7907;51.368;6.730;2022-12-29T17:47:28;1.30;;;0.22;;
15614;SDS011;7907;51.368;6.730;2022-12-29T17:49:57;0.20;;;0.00;;
15614;SDS011;7907;51.368;6.730;2022-12-29T17:52:25;0.00;;;0.00;;
15614;SDS011;7907;51.368;6.730;2022-12-29T17:54:52;1.60;;;0.40;;
15614;SDS011;7907;51.368;6.730;2022-12-29T17:57:20;0.10;;;0.10;;
15614;SDS011;7907;51.368;6.730;2022-12-29T17:59:47;0.00;;;0.00;;
15614;SDS011;7907;51.368;6.730;2022-12-29T18:02:25;0.60;;;0.20;;
15614;SDS011;7907;51.368;6.730;2022-12-29T18:04:54;0.70;;;0.40;;
15614;SDS011;7907;51.368;6.730;2022-12-29T18:07:25;0.38;;;0.30;;
15614;SDS011;7907;51.368;6.730;2022-12-29T18:09:53;0.40;;;0.40;;
15614;SDS011;7907;51.368;6.730;2022-12-29T18:12:30;1.40;;;0.40;;
15614;SDS011;7907;51.368;6.730;2022-12-29T18:15:03;0.98;;;0.20;;
15614;SDS011;7907;51.368;6.730;2022-12-29T18:17:31;0.20;;;0.20;;
15614;SDS011;7907;51.368;6.730;2022-12-29T18:19:59;0.00;;;0.00;;
15614;SDS011;7907;51.368;6.730;2022-12-29T18:22:27;0.20;;;0.20;;
15614;SDS011;7907;51.368;6.730;2022-12-29T18:24:54;0.10;;;0.10;;
15614;SDS011;7907;51.368;6.730;2022-12-29T18:27:21;0.38;;;0.28;;
15614;SDS011;7907;51.368;6.730;2022-12-29T18:29:49;1.40;;;0.80;;
15614;SDS011;7907;51.368;6.730;2022-12-29T18:32:16;0.30;;;0.30;;
15614;SDS011;7907;51.368;6.730;2022-12-29T18:34:43;1.20;;;0.40;;
15614;SDS011;7907;51.368;6.730;2022-12-29T18:37:12;3.40;;;0.60;;
15614;SDS011;7907;51.368;6.730;2022-12-29T18:39:39;1.20;;;0.45;;
15614;SDS011;7907;51.368;6.730;2022-12-29T18:42:08;1.85;;;0.25;;
15614;SDS011;7907;51.368;6.730;2022-12-29T18:44:41;2.03;;;0.60;;
15614;SDS011;7907;51.368;6.730;2022-12-29T18:47:09;3.37;;;0.90;;
15614;SDS011;7907;51.368;6.730;2022-12-29T18:49:36;2.90;;;0.45;;
15614;SDS011;7907;51.368;6.730;2022-12-29T18:52:03;2.25;;;0.80;;
15614;SDS011;7907;51.368;6.730;2022-12-29T18:54:32;3.47;;;0.90;;
15614;SDS011;7907;51.368;6.730;2022-12-29T18:56:59;4.00;;;0.55;;
15614;SDS011;7907;51.368;6.730;2022-12-29T18:59:27;1.17;;;0.77;;
15614;SDS011;7907;51.368;6.730;2022-12-29T19:01:54;1.17;;;0.47;;
15614;SDS011;7907;51.368;6.730;2022-12-29T19:04:21;3.78;;;0.70;;
15614;SDS011;7907;51.368;6.730;2022-12-29T19:06:50;0.60;;;0.20;;
15614;SDS011;7907;51.368;6.730;2022-12-29T19:09:18;6.38;;;1.40;;
15614;SDS011;7907;51.368;6.730;2022-12-29T19:11:47;6.05;;;2.10;;
15614;SDS011;7907;51.368;6.730;2022-12-29T19:14:17;1.58;;;0.73;;
15614;SDS011;7907;51.368;6.730;2022-12-29T19:16:44;2.40;;;0.70;;
15614;SDS011;7907;51.368;6.730;2022-12-29T19:19:13;0.70;;;0.50;;
15614;SDS011;7907;51.368;6.730;2022-12-29T19:21:41;1.80;;;0.93;;
15614;SDS011;7907;51.368;6.730;2022-12-29T19:24:13;1.25;;;0.47;;
15614;SDS011;7907;51.368;6.730;2022-12-29T19:26:48;0.57;;;0.13;;
15614;SDS011;7907;51.368;6.730;2022-12-29T19:29:20;3.53;;;0.73;;
15614;SDS011;7907;51.368;6.730;2022-12-29T19:31:47;14.38;;;1.02;;
15614;SDS011;7907;51.368;6.730;2022-12-29T19:34:14;1.63;;;0.40;;
15614;SDS011;7907;51.368;6.730;2022-12-29T19:36:43;5.55;;;1.00;;
15614;SDS011;7907;51.368;6.730;2022-12-29T19:39:11;1.45;;;0.63;;
15614;SDS011;7907;51.368;6.730;2022-12-29T19:41:38;1.80;;;0.30;;
15614;SDS011;7907;51.368;6.730;2022-12-29T19:44:08;2.40;;;0.28;;
15614;SDS011;7907;51.368;6.730;2022-12-29T19:46:35;6.63;;;0.65;;
15614;SDS011;7907;51.368;6.730;2022-12-29T19:49:02;1.70;;;0.47;;
15614;SDS011;7907;51.368;6.730;2022-12-29T19:51:29;2.35;;;0.52;;
15614;SDS011;7907;51.368;6.730;2022-12-29T19:53:58;4.50;;;1.00;;
15614;SDS011;7907;51.368;6.730;2022-12-29T19:56:26;1.60;;;0.90;;
15614;SDS011;7907;51.368;6.730;2022-12-29T19:58:53;1.83;;;0.52;;
15614;SDS011;7907;51.368;6.730;2022-12-29T20:01:23;1.02;;;0.63;;
15614;SDS011;7907;51.368;6.730;2022-12-29T20:03:51;1.60;;;0.55;;
15614;SDS011;7907;51.368;6.730;2022-12-29T20:06:18;1.30;;;0.70;;
15614;SDS011;7907;51.368;6.730;2022-12-29T20:08:46;2.85;;;0.80;;
15614;SDS011;7907;51.368;6.730;2022-12-29T20:11:16;1.00;;;0.60;;